Time;durP1;ratioP1;P1;durP2;ratioP2;P2;SDS_P1;SDS_P2;PMS_P1;PMS_P2;Temp;Humidity;BMP_temperature;BMP_pressure;BME280_temperature;BME280_humidity;BME280_pressure;Samples;Min_cycle;Max_cycle;Signal;HPM_P1;HPM_P2
2021/10/18 00:05:48;;;;;;;13.60;11.70;;;;;;;6.92;100.00;100841.81;21148280;27;20573;-65
2021/10/18 00:35:57;;;;;;;11.77;10.03;;;;;;;7.31;100.00;100839.31;20894877;28;20349;-65
2021/10/18 00:46:01;;;;;;;12.90;10.97;;;;;;;7.41;100.00;100830.88;20892160;28;20240;-62
2021/10/18 00:56:06;;;;;;;15.13;11.40;;;;;;;7.55;100.00;100841.78;20891108;28;20691;-70
2021/10/18 01:16:08;;;;;;;15.07;9.90;;;;;;;7.78;100.00;100840.75;20991690;27;21105;-73
2021/10/18 01:26:13;;;;;;;14.60;11.57;;;;;;;7.78;100.00;100834.59;20975684;28;20375;-74
2021/10/18 01:36:17;;;;;;;12.57;10.97;;;;;;;7.89;100.00;100842.94;21026689;27;20217;-73
2021/10/18 01:46:22;;;;;;;14.97;11.10;;;;;;;7.89;100.00;100842.94;21057322;27;20309;-73
2021/10/18 01:56:25;;;;;;;12.60;11.07;;;;;;;7.91;100.00;100852.56;21056268;27;20588;-71
2021/10/18 02:06:30;;;;;;;14.73;12.30;;;;;;;7.92;100.00;100848.97;21055303;27;20603;-70
2021/10/18 02:16:34;;;;;;;15.53;12.53;;;;;;;7.66;100.00;100851.06;21052580;27;20228;-70
2021/10/18 02:26:39;;;;;;;17.43;12.73;;;;;;;7.46;100.00;100850.16;21003231;27;20602;-62
2021/10/18 02:36:42;;;;;;;12.93;11.23;;;;;;;7.42;100.00;100843.22;20997460;28;20230;-61
2021/10/18 02:46:47;;;;;;;18.40;13.23;;;;;;;7.37;100.00;100845.19;20996688;28;20756;-60
2021/10/18 02:56:51;;;;;;;13.67;11.53;;;;;;;7.24;100.00;100854.66;20918182;28;20252;-64
2021/10/18 03:16:52;;;;;;;17.07;13.67;;;;;;;6.75;100.00;100861.09;21061044;27;20621;-63
2021/10/18 03:26:56;;;;;;;16.50;13.77;;;;;;;6.55;100.00;100875.13;21058591;28;20227;-72
2021/10/18 03:37:03;;;;;;;19.03;14.97;;;;;;;6.58;100.00;100890.06;21057929;28;20241;-69
2021/10/18 03:57:04;;;;;;;20.23;14.47;;;;;;;6.88;100.00;100892.34;21076458;27;20927;-68
2021/10/18 04:17:05;;;;;;;17.30;14.87;;;;;;;7.08;100.00;100909.28;20909754;27;20563;-72
2021/10/18 04:27:09;;;;;;;20.73;16.87;;;;;;;7.04;100.00;100912.97;20891257;28;20224;-72
2021/10/18 04:37:14;;;;;;;20.37;15.40;;;;;;;6.86;100.00;100930.50;20841694;28;20244;-73
2021/10/18 04:47:17;;;;;;;20.00;14.70;;;;;;;6.51;100.00;100931.84;20808716;28;20706;-72
2021/10/18 04:57:22;;;;;;;18.63;14.90;;;;;;;6.21;100.00;100940.94;20807603;28;20220;-72
2021/10/18 05:07:26;;;;;;;20.70;15.53;;;;;;;5.97;100.00;100950.63;20806534;28;20233;-72
2021/10/18 05:17:31;;;;;;;18.53;14.17;;;;;;;5.88;100.00;100961.50;20836278;28;20227;-69
2021/10/18 05:27:34;;;;;;;20.80;16.07;;;;;;;5.85;100.00;100962.47;20766581;28;20283;-61
2021/10/18 05:37:43;;;;;;;20.00;16.23;;;;;;;5.83;100.00;100980.19;20750199;28;20228;-70
2021/10/18 06:37:36;;;;;;;17.53;14.63;;;;;;;7.81;100.00;101047.88;20901262;27;20587;-69
2021/10/18 06:47:40;;;;;;;18.67;13.53;;;;;;;8.76;100.00;101063.28;20892217;28;20233;-70
2021/10/18 06:57:45;;;;;;;15.13;11.80;;;;;;;9.27;100.00;101067.16;20891953;28;20281;-69
2021/10/18 07:07:48;;;;;;;14.57;11.17;;;;;;;9.62;100.00;101079.66;20889494;28;20553;-68
2021/10/18 07:17:53;;;;;;;14.60;11.30;;;;;;;9.20;100.00;101102.97;20890450;28;20264;-65
2021/10/18 07:27:57;;;;;;;11.40;9.73;;;;;;;9.22;100.00;101101.13;20889637;28;20717;-61
2021/10/18 07:38:03;;;;;;;13.57;9.97;;;;;;;9.74;100.00;101116.38;20888864;28;20219;-61
2021/10/18 07:48:07;;;;;;;10.43;8.13;;;;;;;10.22;100.00;101117.63;20836812;28;20228;-61
2021/10/18 07:58:12;;;;;;;9.47;6.70;;;;;;;11.12;100.00;101110.22;20832161;28;20710;-63
2021/10/18 08:08:21;;;;;;;7.70;6.23;;;;;;;11.66;100.00;101133.09;20831269;28;20228;-65
2021/10/18 08:28:21;;;;;;;7.97;6.20;;;;;;;11.72;100.00;101154.13;20987320;27;20619;-58
2021/10/18 08:38:47;;;;;;;7.97;6.70;;;;;;;11.81;100.00;101144.78;20974862;28;20238;-69
2021/10/18 08:48:54;;;;;;;6.80;5.97;;;;;;;11.48;100.00;101158.16;20972805;28;20258;-64
2021/10/18 08:58:58;;;;;;;7.13;6.20;;;;;;;11.10;100.00;101158.44;20973228;28;20730;-68
2021/10/18 09:09:04;;;;;;;6.13;5.53;;;;;;;11.12;100.00;101153.84;21056032;27;20246;-68
2021/10/18 09:19:10;;;;;;;6.50;5.10;;;;;;;10.94;100.00;101160.16;21055234;27;20233;-68
2021/10/18 09:29:16;;;;;;;5.63;5.13;;;;;;;11.28;100.00;101155.69;21054962;27;20692;-70
2021/10/18 09:39:28;;;;;;;4.70;4.20;;;;;;;11.72;100.00;101156.78;21000020;28;20233;-69
2021/10/18 10:51:54;;;;;;;4.33;3.43;;;;;;;12.53;100.00;101152.19;20909783;28;20233;-65
2021/10/18 11:02:00;;;;;;;2.93;2.60;;;;;;;12.72;94.82;101152.81;20909217;28;20242;-63
2021/10/18 11:12:07;;;;;;;3.67;2.60;;;;;;;13.89;88.54;101168.75;20916290;28;20227;-65
2021/10/18 11:22:10;;;;;;;3.00;2.70;;;;;;;13.58;87.12;101137.69;20907534;28;20227;-68
2021/10/18 11:32:16;;;;;;;4.60;2.70;;;;;;;13.73;85.20;101150.13;20983057;28;20222;-69
2021/10/18 11:42:19;;;;;;;3.17;2.90;;;;;;;13.17;80.94;101164.38;20989147;28;20250;-69
2021/10/18 11:52:24;;;;;;;3.33;3.00;;;;;;;12.72;86.39;101165.34;20988262;28;20256;-69
2021/10/18 12:02:28;;;;;;;2.77;2.57;;;;;;;12.86;83.19;101160.88;20987781;28;20590;-69
2021/10/18 12:12:33;;;;;;;4.50;2.80;;;;;;;12.94;85.19;101163.09;20987472;28;20233;-69
2021/10/18 12:23:00;;;;;;;2.90;2.70;;;;;;;12.34;86.01;101151.53;20986823;28;20260;-68
2021/10/18 12:33:13;;;;;;;3.53;3.23;;;;;;;12.94;84.88;101157.72;20986465;28;20327;-60
2021/10/18 12:43:26;;;;;;;3.30;3.00;;;;;;;13.73;77.95;101152.81;20986487;28;20315;-60
2021/10/18 12:53:33;;;;;;;4.23;2.90;;;;;;;13.55;76.76;101160.19;20984780;28;20252;-69
2021/10/18 13:03:41;;;;;;;4.00;3.60;;;;;;;13.43;80.59;101160.94;20985661;28;20238;-64
2021/10/18 13:13:49;;;;;;;3.20;2.90;;;;;;;12.93;81.61;101162.22;20997090;28;20618;-69
2021/10/18 13:23:52;;;;;;;2.60;2.40;;;;;;;12.99;86.90;101155.63;20999233;28;20233;-62
2021/10/18 13:33:57;;;;;;;2.40;2.20;;;;;;;12.88;78.47;101163.47;20997528;28;20697;-62
2021/10/18 13:44:01;;;;;;;2.67;2.33;;;;;;;12.47;79.79;101174.81;20998199;28;20657;-60
2021/10/18 13:54:06;;;;;;;2.20;2.00;;;;;;;12.03;82.70;101189.91;20898234;28;20848;-63
2021/10/18 14:04:10;;;;;;;2.63;2.37;;;;;;;11.75;87.75;101191.44;20910945;28;20320;-65
2021/10/18 14:14:17;;;;;;;3.17;2.70;;;;;;;11.78;91.83;101182.38;20912977;28;20277;-68
2021/10/18 14:24:21;;;;;;;3.03;2.07;;;;;;;11.96;91.75;101186.69;20911982;28;20230;-69
2021/10/18 14:34:26;;;;;;;3.97;2.80;;;;;;;11.83;92.51;101183.00;20910574;28;20314;-67
2021/10/18 14:44:31;;;;;;;2.83;2.47;;;;;;;11.63;98.36;101185.84;20910340;28;20599;-68
2021/10/18 14:54:36;;;;;;;6.47;4.13;;;;;;;11.40;100.00;101179.09;20908474;28;20635;-68
2021/10/18 15:04:40;;;;;;;12.03;7.43;;;;;;;11.17;100.00;101178.50;20908128;28;20255;-73
2021/10/18 15:14:45;;;;;;;9.17;6.57;;;;;;;10.95;100.00;101188.59;20907575;28;20653;-72
2021/10/18 15:24:49;;;;;;;17.93;10.30;;;;;;;10.71;100.00;101193.41;20907515;28;20314;-75
2021/10/18 15:34:54;;;;;;;7.37;5.93;;;;;;;10.61;100.00;101207.28;20906514;28;20227;-74
2021/10/18 15:44:58;;;;;;;7.70;5.40;;;;;;;10.55;100.00;101215.59;20904765;28;20250;-74
2021/10/18 15:55:03;;;;;;;6.10;5.30;;;;;;;10.51;100.00;101211.34;20904321;28;20684;-75
2021/10/18 16:15:06;;;;;;;5.00;3.93;;;;;;;10.35;100.00;101221.94;21066855;27;20567;-75
2021/10/18 16:25:11;;;;;;;7.03;6.33;;;;;;;10.38;100.00;101235.13;21039735;28;20312;-76
2021/10/18 16:35:16;;;;;;;5.60;4.90;;;;;;;10.37;100.00;101234.25;21034796;28;20245;-67
2021/10/18 16:45:19;;;;;;;4.73;4.00;;;;;;;10.37;100.00;101228.06;21003493;28;20269;-75
2021/10/18 16:55:24;;;;;;;15.87;11.77;;;;;;;10.36;100.00;101234.31;20962354;28;20272;-75
2021/10/18 17:05:29;;;;;;;10.00;8.30;;;;;;;10.35;100.00;101232.59;20967783;28;20286;-73
2021/10/18 17:15:35;;;;;;;7.47;6.07;;;;;;;10.18;100.00;101212.06;20971275;28;20375;-71
2021/10/18 17:25:39;;;;;;;9.97;7.87;;;;;;;10.29;100.00;101225.75;20934766;28;20580;-68
2021/10/18 17:35:44;;;;;;;9.27;7.63;;;;;;;10.35;100.00;101256.59;20918316;28;20344;-70
2021/10/18 17:45:48;;;;;;;11.83;8.20;;;;;;;10.42;100.00;101247.34;20915445;28;20718;-71
2021/10/18 17:55:53;;;;;;;6.77;6.07;;;;;;;10.44;100.00;101243.69;20925787;28;20218;-71
2021/10/18 18:06:05;;;;;;;10.47;8.00;;;;;;;10.46;100.00;101244.47;20919952;28;20245;-64
2021/10/18 18:16:11;;;;;;;13.37;10.60;;;;;;;10.49;100.00;101258.59;20930392;28;20238;-70
2021/10/18 18:26:15;;;;;;;14.13;11.23;;;;;;;10.48;100.00;101252.41;20902542;28;20247;-64
2021/10/18 18:36:21;;;;;;;15.43;12.87;;;;;;;10.39;100.00;101272.38;20924645;28;20927;-66
2021/10/18 18:46:25;;;;;;;14.90;13.33;;;;;;;10.37;100.00;101270.75;20905113;28;20253;-67
2021/10/18 18:56:31;;;;;;;15.33;12.83;;;;;;;10.33;100.00;101280.69;20906547;28;20256;-71
2021/10/18 19:16:34;;;;;;;14.90;12.43;;;;;;;10.45;100.00;101277.44;20931778;27;20692;-74
2021/10/18 19:36:36;;;;;;;17.03;14.33;;;;;;;10.55;100.00;101279.66;20929957;27;20716;-67
2021/10/18 19:46:40;;;;;;;18.27;15.13;;;;;;;10.50;100.00;101287.03;20922476;28;20305;-66
2021/10/18 19:56:48;;;;;;;10.00;8.70;;;;;;;10.29;100.00;101272.91;20921095;28;20741;-71
2021/10/18 20:06:52;;;;;;;8.47;6.90;;;;;;;10.14;100.00;101268.28;20919222;28;20226;-68
2021/10/18 20:16:58;;;;;;;14.67;11.07;;;;;;;10.07;100.00;101273.03;20916324;28;20226;-68
2021/10/18 20:27:03;;;;;;;12.63;11.13;;;;;;;10.01;100.00;101289.31;20914468;28;20247;-65
2021/10/18 20:37:11;;;;;;;21.73;17.53;;;;;;;9.91;100.00;101288.00;20921153;28;20238;-66
2021/10/18 20:47:16;;;;;;;34.47;27.30;;;;;;;9.85;100.00;101298.94;20836881;28;20224;-65
2021/10/18 20:57:21;;;;;;;39.80;29.60;;;;;;;9.79;100.00;101289.41;20907727;28;20250;-68
2021/10/18 21:17:29;;;;;;;39.30;29.33;;;;;;;9.85;100.00;101298.94;21110147;27;20982;-69
2021/10/18 21:27:34;;;;;;;38.40;29.33;;;;;;;9.96;100.00;101309.97;21169084;27;20239;-66
2021/10/18 21:37:40;;;;;;;38.20;30.10;;;;;;;9.94;100.00;101314.53;21177912;27;20229;-68
2021/10/18 21:47:43;;;;;;;47.00;33.97;;;;;;;9.81;100.00;101311.53;21192001;27;20240;-68
2021/10/18 21:57:48;;;;;;;48.30;33.23;;;;;;;9.73;100.00;101321.69;21193390;27;20307;-69
2021/10/18 22:17:56;;;;;;;31.67;25.03;;;;;;;9.62;100.00;101321.31;20995370;27;20585;-65
2021/10/18 22:28:00;;;;;;;32.07;24.10;;;;;;;9.62;100.00;101319.50;20984802;27;20246;-66
2021/10/18 22:38:05;;;;;;;30.67;22.73;;;;;;;9.63;100.00;101323.91;20966257;27;20678;-66
2021/10/18 22:48:09;;;;;;;29.97;23.13;;;;;;;9.62;100.00;101324.84;20977938;28;20241;-65
2021/10/18 22:58:14;;;;;;;28.17;20.73;;;;;;;9.67;100.00;101332.63;20975130;27;20238;-65
2021/10/18 23:08:18;;;;;;;26.13;19.57;;;;;;;9.73;100.00;101322.56;20945491;27;20238;-65
2021/10/18 23:18:23;;;;;;;22.60;17.10;;;;;;;9.74;100.00;101321.63;20938382;28;21010;-65
2021/10/18 23:28:26;;;;;;;24.43;20.30;;;;;;;9.80;100.00;101316.94;20887650;28;20241;-67
2021/10/18 23:38:32;;;;;;;24.60;19.97;;;;;;;9.84;100.00;101324.75;20899771;28;20239;-67
2021/10/18 23:48:36;;;;;;;25.93;19.90;;;;;;;9.87;100.00;101323.75;20881420;28;20235;-67
2021/10/18 23:58:41;;;;;;;22.53;18.23;;;;;;;9.93;100.00;101334.13;20903618;28;20288;-64
